Terminal Aerodrome Forecast
Issued by NWS Springfield, MO

Home | Current Version | Previous Version | Text Only | Print | Product List | Glossary On
Versions: 1 2 3 4 5 6 7 8 9 10 11 12 13 14 15
000
FTUS43 KSGF 301300 AAA
TAFSGF
TAF AMD
KSGF 301310Z 3013/3112 VRB03KT P6SM SKC
     FM301500 16008KT P6SM SKC
     FM301800 19009KT P6SM SKC
     FM310000 18007KT P6SM SKC=

USA.gov is the U.S. government's official web portal to all federal, state and local government web resources and services.